Terminal Aerodrome Forecast
Issued by NWS Memphis, TN

Home | Current Version | Previous Version | Text Only | Print | Product List | Glossary On
Versions: 1 2 3 4 5 6 7 8 9 10 11 12
000
FTUS44 KMEG 261742
TAFJBR
TAF
KJBR 261742Z 2618/2718 12006KT P6SM VCTS SCT040CB BKN100
      TEMPO 2618/2620 4SM -TSRA BKN025CB
     FM270100 VRB02KT P6SM SCT250
      TEMPO 2709/2713 4SM BR
     FM271600 14004KT P6SM SCT040=

USA.gov is the U.S. government's official web portal to all federal, state and local government web resources and services.